Time;durP1;ratioP1;P1;durP2;ratioP2;P2;SDS_P1;SDS_P2;PMS_P1;PMS_P2;Temp;Humidity;BMP_temperature;BMP_pressure;BME280_temperature;BME280_humidity;BME280_pressure;Samples;Min_cycle;Max_cycle;Signal;HPM_P1;HPM_P2
2023/11/08 00:00:13;;;;;;;;;;;;;;;2.71;64.50;95154.72;4989111;28;19936;-82
2023/11/08 00:02:38;;;;;;;;;;;;;;;2.65;65.07;95169.25;4989471;28;19981;-82
2023/11/08 00:05:04;;;;;;;;;;;;;;;2.93;64.36;95162.44;4987915;28;19937;-82
2023/11/08 00:07:29;;;;;;;;;;;;;;;2.74;65.18;95164.13;4988753;28;19952;-81
2023/11/08 00:09:55;;;;;;;;;;;;;;;3.23;63.56;95156.13;4985193;28;19918;-80
2023/11/08 00:12:20;;;;;;;;;;;;;;;3.61;61.68;95156.16;4984475;28;19932;-83
2023/11/08 00:14:47;;;;;;;;;;;;;;;3.27;62.90;95167.22;4987420;28;20006;-82
2023/11/08 00:17:16;;;;;;;;;;;;;;;2.70;64.38;95160.13;4988804;28;19928;-81
2023/11/08 00:19:41;;;;;;;;;;;;;;;2.93;64.11;95165.06;4988143;28;19957;-81
2023/11/08 00:22:07;;;;;;;;;;;;;;;2.91;64.10;95160.78;4987576;28;19963;-80
2023/11/08 00:24:32;;;;;;;;;;;;;;;3.31;62.44;95168.59;4988267;28;19995;-82
2023/11/08 00:26:57;;;;;;;;;;;;;;;3.57;62.25;95161.88;4985983;28;19918;-82
2023/11/08 00:29:23;;;;;;;;;;;;;;;2.68;63.33;95167.34;4986157;28;20353;-82
2023/11/08 00:31:50;;;;;;;;;;;;;;;2.47;63.94;95168.28;4979948;28;19959;-82
2023/11/08 00:34:16;;;;;;;;;;;;;;;3.20;63.37;95163.50;4987126;28;20451;-83
2023/11/08 00:36:41;;;;;;;;;;;;;;;3.02;63.12;95156.31;4988508;28;19930;-82
2023/11/08 00:39:07;;;;;;;;;;;;;;;3.03;63.29;95165.91;4987189;28;20270;-82
2023/11/08 00:41:34;;;;;;;;;;;;;;;2.67;63.27;95166.50;4964753;28;19918;-79
2023/11/08 00:44:00;;;;;;;;;;;;;;;3.00;63.01;95176.69;4994594;28;19943;-79
2023/11/08 00:46:26;;;;;;;;;;;;;;;2.15;65.74;95180.72;4980041;28;19988;-79
2023/11/08 00:48:51;;;;;;;;;;;;;;;2.28;65.13;95172.56;4991649;28;19956;-79
2023/11/08 00:51:16;;;;;;;;;;;;;;;2.65;64.17;95177.13;4978263;28;19948;-79
2023/11/08 00:53:42;;;;;;;;;;;;;;;2.19;65.44;95170.75;4981762;28;19944;-79
2023/11/08 00:56:07;;;;;;;;;;;;;;;2.38;65.16;95172.56;4980002;28;19934;-79
2023/11/08 00:58:32;;;;;;;;;;;;;;;1.95;65.95;95192.97;4976957;28;19963;-79
2023/11/08 01:00:58;;;;;;;;;;;;;;;2.51;64.56;95173.13;4980074;28;19956;-79
2023/11/08 01:03:23;;;;;;;;;;;;;;;2.22;65.42;95170.50;4978340;28;19992;-80
2023/11/08 01:05:48;;;;;;;;;;;;;;;1.95;65.88;95174.59;4981454;28;19963;-79
2023/11/08 01:08:13;;;;;;;;;;;;;;;2.26;65.92;95180.59;4976126;28;20513;-79
2023/11/08 01:10:42;;;;;;;;;;;;;;;2.03;66.65;95180.00;4980926;28;19960;-79
2023/11/08 01:13:07;;;;;;;;;;;;;;;2.39;65.23;95180.31;4965132;28;19966;-79
2023/11/08 01:15:32;;;;;;;;;;;;;;;2.17;65.66;95191.09;4979911;28;19954;-79
2023/11/08 01:17:57;;;;;;;;;;;;;;;2.42;65.22;95175.75;4973267;28;19960;-79
2023/11/08 01:20:23;;;;;;;;;;;;;;;2.70;64.79;95182.00;4979640;28;20641;-78
2023/11/08 01:22:48;;;;;;;;;;;;;;;2.60;65.21;95187.25;4980010;28;19970;-79
2023/11/08 01:25:13;;;;;;;;;;;;;;;2.70;64.39;95187.25;4963876;28;19952;-79
2023/11/08 01:27:38;;;;;;;;;;;;;;;2.68;64.70;95185.72;4977548;28;19961;-79
2023/11/08 01:30:04;;;;;;;;;;;;;;;2.41;65.55;95174.91;4981035;28;19960;-80
2023/11/08 01:32:31;;;;;;;;;;;;;;;2.44;65.12;95184.31;4976733;28;19939;-79
2023/11/08 01:34:56;;;;;;;;;;;;;;;2.73;64.43;95183.50;4976348;28;19968;-79
2023/11/08 01:37:21;;;;;;;;;;;;;;;2.61;64.50;95181.00;4993075;28;19937;-79
2023/11/08 01:39:47;;;;;;;;;;;;;;;2.70;64.75;95183.78;4980705;28;20010;-79
2023/11/08 01:42:12;;;;;;;;;;;;;;;2.59;64.99;95190.00;4977269;28;20022;-79
2023/11/08 01:44:38;;;;;;;;;;;;;;;2.90;63.71;95190.66;4978863;28;20611;-79
2023/11/08 01:47:04;;;;;;;;;;;;;;;2.55;64.74;95183.38;4980594;28;19964;-79
2023/11/08 01:49:29;;;;;;;;;;;;;;;2.39;65.40;95187.38;4978689;28;19959;-79
2023/11/08 01:51:54;;;;;;;;;;;;;;;2.93;63.10;95192.22;4979362;28;20483;-78
2023/11/08 01:54:19;;;;;;;;;;;;;;;3.15;62.91;95191.06;4976922;28;19972;-79
2023/11/08 01:56:47;;;;;;;;;;;;;;;2.95;62.83;95192.03;4975090;28;19986;-79
2023/11/08 01:59:13;;;;;;;;;;;;;;;2.70;64.51;95189.03;4973195;28;20441;-76
2023/11/08 02:01:39;;;;;;;;;;;;;;;2.90;62.98;95184.59;4979028;28;19963;-79
2023/11/08 02:04:05;;;;;;;;;;;;;;;2.31;65.46;95189.88;4979095;28;19950;-77
2023/11/08 02:06:32;;;;;;;;;;;;;;;1.92;66.27;95190.59;4974384;28;19956;-77
2023/11/08 02:08:57;;;;;;;;;;;;;;;1.99;66.69;95195.19;4978891;28;19968;-77
2023/11/08 02:11:23;;;;;;;;;;;;;;;1.85;67.35;95195.56;4976265;28;20206;-79
2023/11/08 02:13:48;;;;;;;;;;;;;;;1.72;68.62;95199.25;4978925;28;19956;-77
2023/11/08 02:16:13;;;;;;;;;;;;;;;2.60;65.48;95187.25;4979078;28;20532;-77
2023/11/08 02:18:39;;;;;;;;;;;;;;;2.93;63.63;95186.13;4978186;28;19999;-76
2023/11/08 02:21:04;;;;;;;;;;;;;;;2.89;63.69;95186.38;4973713;28;19952;-76
2023/11/08 02:23:31;;;;;;;;;;;;;;;2.67;64.54;95178.78;4962157;28;20009;-77
2023/11/08 02:25:56;;;;;;;;;;;;;;;2.65;64.40;95181.56;4978391;28;20093;-76
2023/11/08 02:28:22;;;;;;;;;;;;;;;2.12;66.47;95187.03;4972370;28;19962;-76
2023/11/08 02:30:53;;;;;;;;;;;;;;;2.10;67.18;95186.38;4979687;28;19964;-76
2023/11/08 02:33:19;;;;;;;;;;;;;;;2.17;66.58;95186.66;4978771;28;19945;-77
2023/11/08 02:35:44;;;;;;;;;;;;;;;1.74;67.59;95184.19;4978998;28;19971;-78
2023/11/08 02:38:11;;;;;;;;;;;;;;;1.97;67.63;95185.78;4975937;28;19979;-78
2023/11/08 02:40:37;;;;;;;;;;;;;;;1.91;68.17;95178.44;4978732;28;19960;-76
2023/11/08 02:43:02;;;;;;;;;;;;;;;1.89;68.73;95173.34;4975133;28;19962;-77
2023/11/08 02:45:28;;;;;;;;;;;;;;;2.20;66.76;95182.91;4977433;28;19973;-78
2023/11/08 02:47:53;;;;;;;;;;;;;;;1.88;68.41;95187.44;4978617;28;19965;-78
2023/11/08 02:50:18;;;;;;;;;;;;;;;1.96;68.15;95189.38;4976411;28;20512;-76
2023/11/08 02:52:44;;;;;;;;;;;;;;;1.84;68.60;95186.84;4962348;28;19943;-77
2023/11/08 02:55:11;;;;;;;;;;;;;;;1.99;68.46;95192.56;4975689;28;20008;-77
2023/11/08 02:57:36;;;;;;;;;;;;;;;1.84;68.22;95204.41;4978438;28;19954;-76
2023/11/08 03:00:03;;;;;;;;;;;;;;;1.78;69.10;95203.16;4962425;28;19940;-77
2023/11/08 03:02:30;;;;;;;;;;;;;;;2.05;67.79;95206.97;4973876;28;19976;-77
2023/11/08 03:04:56;;;;;;;;;;;;;;;1.80;69.26;95200.41;4962878;28;19949;-78
2023/11/08 03:07:22;;;;;;;;;;;;;;;1.82;68.92;95196.66;4958307;28;20328;-77
2023/11/08 03:09:47;;;;;;;;;;;;;;;1.17;71.35;95195.13;4978452;28;20161;-79
2023/11/08 03:12:13;;;;;;;;;;;;;;;1.57;70.37;95196.16;4976864;28;19958;-77
2023/11/08 03:14:39;;;;;;;;;;;;;;;1.54;69.74;95199.06;4978316;28;19995;-78
2023/11/08 03:17:04;;;;;;;;;;;;;;;1.74;69.23;95193.88;4973569;28;20565;-77
2023/11/08 03:19:31;;;;;;;;;;;;;;;1.61;69.70;95197.53;4980000;28;19969;-77
2023/11/08 03:21:56;;;;;;;;;;;;;;;1.83;68.91;95200.09;4973580;28;20018;-78
2023/11/08 03:24:21;;;;;;;;;;;;;;;1.86;69.37;95208.56;4979884;28;20442;-78
2023/11/08 03:26:49;;;;;;;;;;;;;;;2.10;68.12;95202.13;4981466;28;19973;-79
2023/11/08 03:29:14;;;;;;;;;;;;;;;1.97;68.97;95188.41;4981660;28;20004;-78
2023/11/08 03:31:39;;;;;;;;;;;;;;;2.20;68.47;95190.78;4980385;28;20018;-78
2023/11/08 03:34:04;;;;;;;;;;;;;;;2.01;68.77;95200.31;4965166;28;19964;-78
2023/11/08 03:36:30;;;;;;;;;;;;;;;1.97;68.96;95205.00;4981997;28;20410;-77
2023/11/08 03:38:56;;;;;;;;;;;;;;;1.88;69.39;95201.38;4981209;28;19963;-77
2023/11/08 03:41:24;;;;;;;;;;;;;;;2.10;68.16;95207.38;4980861;28;19964;-78
2023/11/08 03:43:50;;;;;;;;;;;;;;;2.07;69.16;95197.13;4980264;28;20494;-76
2023/11/08 03:46:15;;;;;;;;;;;;;;;2.36;67.45;95200.78;4977375;28;20035;-77
2023/11/08 03:48:40;;;;;;;;;;;;;;;1.81;68.98;95208.13;4979768;28;19968;-77
2023/11/08 03:51:06;;;;;;;;;;;;;;;1.39;70.71;95216.09;4963113;28;20005;-77
2023/11/08 03:53:31;;;;;;;;;;;;;;;1.50;70.09;95221.25;4978987;28;20543;-78
2023/11/08 03:55:57;;;;;;;;;;;;;;;1.36;71.91;95215.38;4974945;28;20015;-76
2023/11/08 03:58:22;;;;;;;;;;;;;;;2.06;69.11;95208.63;4964961;28;19957;-79
2023/11/08 04:00:47;;;;;;;;;;;;;;;1.79;68.33;95215.31;4977251;28;19943;-79
2023/11/08 04:03:12;;;;;;;;;;;;;;;1.90;68.97;95218.81;4979456;28;19971;-78
2023/11/08 04:05:38;;;;;;;;;;;;;;;1.94;69.53;95222.81;4980736;28;20394;-78
2023/11/08 04:08:06;;;;;;;;;;;;;;;1.43;71.33;95236.66;4980604;28;20080;-75
2023/11/08 04:10:32;;;;;;;;;;;;;;;1.96;69.70;95234.00;4976138;28;20307;-79
2023/11/08 04:12:57;;;;;;;;;;;;;;;1.31;71.01;95233.28;4977022;28;19947;-78
2023/11/08 04:15:22;;;;;;;;;;;;;;;1.44;70.52;95238.34;4969524;28;20013;-76
2023/11/08 04:17:47;;;;;;;;;;;;;;;1.68;70.73;95232.00;4980345;28;20504;-78
2023/11/08 04:20:12;;;;;;;;;;;;;;;1.92;69.40;95236.09;4979985;28;20063;-78
2023/11/08 04:22:39;;;;;;;;;;;;;;;1.36;71.94;95235.50;4976914;28;19974;-77
2023/11/08 04:25:06;;;;;;;;;;;;;;;1.69;70.46;95236.28;4974832;28;19952;-78
2023/11/08 04:27:31;;;;;;;;;;;;;;;1.65;69.73;95234.03;4974031;28;20044;-77
2023/11/08 04:29:57;;;;;;;;;;;;;;;2.09;69.20;95245.13;4980778;28;20143;-78
2023/11/08 04:32:22;;;;;;;;;;;;;;;1.74;70.00;95241.94;4981899;28;20612;-78
2023/11/08 04:34:49;;;;;;;;;;;;;;;2.09;68.67;95247.75;4980236;28;20470;-78
2023/11/08 04:37:14;;;;;;;;;;;;;;;2.35;68.04;95241.97;4980709;28;20548;-79
2023/11/08 04:39:40;;;;;;;;;;;;;;;2.30;67.90;95245.97;4963939;28;19956;-77
2023/11/08 04:42:05;;;;;;;;;;;;;;;1.87;69.50;95256.63;4981584;28;20048;-77
2023/11/08 04:44:31;;;;;;;;;;;;;;;2.00;69.55;95245.91;4980210;28;19967;-77
2023/11/08 04:46:56;;;;;;;;;;;;;;;1.87;69.77;95239.09;4979554;28;20466;-76
2023/11/08 04:49:21;;;;;;;;;;;;;;;1.83;69.69;95235.06;4963832;28;19965;-76
2023/11/08 04:51:47;;;;;;;;;;;;;;;1.71;70.24;95244.81;4979448;28;20506;-78
2023/11/08 04:54:12;;;;;;;;;;;;;;;1.84;70.17;95244.59;4976520;28;20050;-78
2023/11/08 04:56:37;;;;;;;;;;;;;;;1.94;69.46;95242.00;4975856;28;19938;-77
2023/11/08 04:59:03;;;;;;;;;;;;;;;2.03;69.68;95248.28;4973167;28;19963;-76
2023/11/08 05:01:28;;;;;;;;;;;;;;;1.81;69.87;95244.88;4979787;28;19959;-78
2023/11/08 05:03:54;;;;;;;;;;;;;;;1.80;70.22;95256.34;4979837;28;20618;-78
2023/11/08 05:06:20;;;;;;;;;;;;;;;1.58;70.07;95252.09;4978457;28;19973;-77
2023/11/08 05:08:45;;;;;;;;;;;;;;;1.70;69.76;95247.59;4975049;28;20606;-78
2023/11/08 05:11:10;;;;;;;;;;;;;;;1.83;69.95;95250.00;4963010;28;19993;-77
2023/11/08 05:13:38;;;;;;;;;;;;;;;1.80;70.70;95250.28;4977495;28;19955;-77
2023/11/08 05:16:03;;;;;;;;;;;;;;;1.60;71.26;95248.38;4961960;28;20417;-78
2023/11/08 05:18:29;;;;;;;;;;;;;;;1.87;70.32;95252.22;4971763;28;20071;-77
2023/11/08 05:20:54;;;;;;;;;;;;;;;1.83;70.59;95258.69;4971913;28;19998;-77
2023/11/08 05:23:19;;;;;;;;;;;;;;;1.68;71.21;95257.41;4977115;28;20556;-77
2023/11/08 05:25:45;;;;;;;;;;;;;;;1.68;71.38;95258.22;4958288;28;20340;-77
2023/11/08 05:28:10;;;;;;;;;;;;;;;1.79;70.80;95262.56;4979237;28;19965;-77
2023/11/08 05:30:35;;;;;;;;;;;;;;;1.79;69.94;95282.72;4979280;28;19984;-78
2023/11/08 05:33:01;;;;;;;;;;;;;;;1.35;72.17;95274.03;4979181;28;19949;-77
2023/11/08 05:35:27;;;;;;;;;;;;;;;1.87;71.25;95267.13;4979087;28;19963;-77
2023/11/08 05:37:52;;;;;;;;;;;;;;;2.01;69.96;95264.16;4976763;28;21313;-76
2023/11/08 05:40:18;;;;;;;;;;;;;;;1.78;70.25;95260.06;4980819;28;20435;-77
2023/11/08 05:42:43;;;;;;;;;;;;;;;1.81;69.39;95273.75;4976335;28;19976;-77
2023/11/08 05:45:08;;;;;;;;;;;;;;;2.12;69.18;95262.41;4979274;28;20166;-77
2023/11/08 05:47:35;;;;;;;;;;;;;;;1.97;68.80;95275.03;4979025;28;20053;-78
2023/11/08 05:50:00;;;;;;;;;;;;;;;1.99;69.66;95266.09;4961719;28;19973;-77
2023/11/08 05:52:25;;;;;;;;;;;;;;;2.25;67.94;95265.59;4979259;28;19954;-77
2023/11/08 05:54:51;;;;;;;;;;;;;;;2.76;66.52;95267.38;4975396;28;19955;-77
2023/11/08 05:57:17;;;;;;;;;;;;;;;2.05;68.81;95264.75;4972612;28;19943;-76
2023/11/08 05:59:43;;;;;;;;;;;;;;;2.78;65.75;95273.28;4977313;28;20358;-78
2023/11/08 06:02:09;;;;;;;;;;;;;;;2.39;67.47;95272.28;4969234;28;19986;-77
2023/11/08 06:04:34;;;;;;;;;;;;;;;2.09;68.24;95273.16;4973110;28;19950;-76
2023/11/08 06:06:59;;;;;;;;;;;;;;;2.67;66.72;95271.63;4973622;28;20530;-78
2023/11/08 06:09:25;;;;;;;;;;;;;;;1.90;68.58;95279.19;4974889;28;19954;-78
2023/11/08 06:11:50;;;;;;;;;;;;;;;2.17;68.16;95286.47;4974401;28;19970;-77
2023/11/08 06:14:15;;;;;;;;;;;;;;;2.58;67.15;95272.47;4978155;28;19967;-78
2023/11/08 06:16:41;;;;;;;;;;;;;;;2.59;66.70;95269.69;4974092;28;19979;-79
2023/11/08 06:19:07;;;;;;;;;;;;;;;2.64;66.50;95272.75;4973199;28;20035;-77
2023/11/08 06:21:32;;;;;;;;;;;;;;;2.63;66.16;95273.69;4971012;28;20555;-78
2023/11/08 06:23:59;;;;;;;;;;;;;;;2.91;65.09;95289.66;4972215;28;20009;-77
2023/11/08 06:26:25;;;;;;;;;;;;;;;2.79;65.24;95282.84;4977796;28;19970;-78
2023/11/08 06:28:50;;;;;;;;;;;;;;;2.83;65.23;95279.00;4979297;28;20040;-75
2023/11/08 06:31:15;;;;;;;;;;;;;;;3.48;63.46;95280.22;4978124;28;20012;-78
2023/11/08 06:33:40;;;;;;;;;;;;;;;3.51;63.11;95277.28;4962476;28;19945;-78
2023/11/08 06:36:06;;;;;;;;;;;;;;;2.90;64.25;95287.97;4977746;28;19946;-78
2023/11/08 06:38:31;;;;;;;;;;;;;;;3.07;63.90;95290.91;4961601;28;19957;-78
2023/11/08 06:40:56;;;;;;;;;;;;;;;2.36;66.75;95287.50;4961688;28;19936;-75
2023/11/08 06:43:22;;;;;;;;;;;;;;;3.06;64.21;95291.03;4979764;28;20412;-77
2023/11/08 06:45:47;;;;;;;;;;;;;;;3.13;63.57;95290.31;4981687;28;19972;-77
2023/11/08 06:48:12;;;;;;;;;;;;;;;3.01;64.99;95294.06;4979977;28;19962;-76
2023/11/08 06:50:37;;;;;;;;;;;;;;;2.67;65.07;95302.34;4959447;28;19989;-78
2023/11/08 06:53:03;;;;;;;;;;;;;;;2.84;63.38;95299.06;4982892;28;19946;-76
2023/11/08 06:55:32;;;;;;;;;;;;;;;2.50;65.80;95309.94;4965598;28;19957;-77
2023/11/08 06:57:58;;;;;;;;;;;;;;;2.16;66.18;95313.69;4982298;28;19964;-78
2023/11/08 07:00:24;;;;;;;;;;;;;;;2.48;65.74;95309.22;4982584;28;19938;-77
2023/11/08 07:02:49;;;;;;;;;;;;;;;1.84;68.02;95318.13;4969246;28;19967;-78
2023/11/08 07:05:14;;;;;;;;;;;;;;;1.99;67.22;95323.88;4980169;28;19946;-78
2023/11/08 07:07:40;;;;;;;;;;;;;;;2.26;66.87;95313.72;4982432;28;19962;-76
2023/11/08 07:10:06;;;;;;;;;;;;;;;1.96;66.68;95318.03;4980495;28;20022;-76
2023/11/08 07:12:31;;;;;;;;;;;;;;;1.92;68.56;95321.88;4979984;28;20028;-77
2023/11/08 07:14:56;;;;;;;;;;;;;;;2.00;67.54;95322.06;4980860;28;19968;-77
2023/11/08 07:17:22;;;;;;;;;;;;;;;2.15;67.56;95325.19;4981380;28;19948;-78
2023/11/08 07:19:47;;;;;;;;;;;;;;;2.51;66.83;95319.47;4980559;28;20004;-78
2023/11/08 07:22:12;;;;;;;;;;;;;;;2.00;68.55;95337.81;4977846;28;19986;-77
2023/11/08 07:24:37;;;;;;;;;;;;;;;1.76;70.13;95320.56;4973508;28;19933;-77
2023/11/08 07:27:03;;;;;;;;;;;;;;;2.46;66.53;95326.94;4965070;28;20003;-77
2023/11/08 07:29:28;;;;;;;;;;;;;;;2.45;66.19;95335.78;4976177;28;19965;-77
2023/11/08 07:31:53;;;;;;;;;;;;;;;2.63;65.35;95344.66;4981098;28;19963;-77
2023/11/08 07:34:22;;;;;;;;;;;;;;;1.96;68.07;95342.50;4965374;28;19976;-78
2023/11/08 07:36:48;;;;;;;;;;;;;;;2.34;66.92;95340.16;4981780;28;19940;-78
2023/11/08 07:39:15;;;;;;;;;;;;;;;2.20;67.49;95335.28;4979444;28;20012;-77
2023/11/08 07:41:40;;;;;;;;;;;;;;;2.34;66.86;95353.31;4963346;28;19966;-79
2023/11/08 07:44:06;;;;;;;;;;;;;;;1.86;68.40;95352.97;4981112;28;19951;-79
2023/11/08 07:46:31;;;;;;;;;;;;;;;1.78;69.42;95344.91;4980818;28;19980;-79
2023/11/08 07:48:56;;;;;;;;;;;;;;;2.08;68.76;95339.81;4977543;28;20488;-79
2023/11/08 07:51:25;;;;;;;;;;;;;;;2.09;67.85;95354.59;4981128;28;19969;-79
2023/11/08 07:53:51;;;;;;;;;;;;;;;2.67;64.99;95344.41;4980031;28;20617;-79
2023/11/08 07:56:16;;;;;;;;;;;;;;;2.80;65.08;95354.69;4975398;28;20016;-79
2023/11/08 07:58:42;;;;;;;;;;;;;;;2.45;66.13;95348.94;4978380;28;20142;-79
2023/11/08 08:01:09;;;;;;;;;;;;;;;2.26;66.09;95367.13;4986973;28;19968;-79
2023/11/08 08:03:35;;;;;;;;;;;;;;;2.63;65.10;95357.81;4981608;28;19974;-79
2023/11/08 08:06:02;;;;;;;;;;;;;;;2.28;66.54;95369.59;4988005;28;19967;-79
2023/11/08 08:08:29;;;;;;;;;;;;;;;2.70;64.68;95352.03;4980143;28;20419;-79
2023/11/08 08:10:54;;;;;;;;;;;;;;;2.47;65.29;95363.59;4980200;28;20060;-80
2023/11/08 08:13:20;;;;;;;;;;;;;;;2.48;65.06;95370.50;4962668;28;19947;-79
2023/11/08 08:15:45;;;;;;;;;;;;;;;2.51;66.28;95361.50;4960386;28;19997;-79
2023/11/08 08:18:11;;;;;;;;;;;;;;;2.16;66.43;95373.28;4981608;28;20063;-79
2023/11/08 08:20:38;;;;;;;;;;;;;;;2.60;66.64;95366.00;4984352;28;19942;-79
2023/11/08 08:23:03;;;;;;;;;;;;;;;2.71;65.10;95375.56;4981487;28;20759;-80
2023/11/08 08:25:28;;;;;;;;;;;;;;;3.17;64.31;95367.19;4982233;28;20026;-79
2023/11/08 08:27:53;;;;;;;;;;;;;;;2.26;65.57;95375.00;4983021;28;20055;-79
2023/11/08 08:30:20;;;;;;;;;;;;;;;1.88;66.74;95377.28;4977625;28;20021;-79
2023/11/08 08:32:46;;;;;;;;;;;;;;;2.09;66.43;95397.44;4980438;28;19946;-79
2023/11/08 08:35:12;;;;;;;;;;;;;;;2.17;66.28;95377.59;4972965;28;19976;-79
2023/11/08 08:37:37;;;;;;;;;;;;;;;2.68;63.95;95378.44;4977921;28;19946;-80
2023/11/08 08:40:10;;;;;;;;;;;;;;;3.17;63.23;95388.25;4973653;28;19933;-80
2023/11/08 08:42:35;;;;;;;;;;;;;;;2.36;65.67;95382.94;4962421;28;20353;-79
2023/11/08 08:45:01;;;;;;;;;;;;;;;2.76;62.47;95383.84;4983059;28;20037;-80
2023/11/08 08:47:26;;;;;;;;;;;;;;;3.39;61.93;95371.34;4982918;28;20041;-80
2023/11/08 08:49:55;;;;;;;;;;;;;;;3.42;61.36;95378.13;4980833;28;19994;-80
2023/11/08 08:52:20;;;;;;;;;;;;;;;4.01;59.54;95379.91;4981596;28;19932;-80
2023/11/08 08:54:45;;;;;;;;;;;;;;;3.42;60.49;95384.22;4985854;28;19993;-80
2023/11/08 08:57:11;;;;;;;;;;;;;;;4.05;59.44;95376.00;4981469;28;20831;-80
2023/11/08 08:59:36;;;;;;;;;;;;;;;3.34;60.47;95380.63;4982993;28;19960;-79
2023/11/08 09:02:01;;;;;;;;;;;;;;;3.54;60.97;95386.75;4978135;28;20041;-79
2023/11/08 09:04:27;;;;;;;;;;;;;;;4.10;59.10;95383.47;4980065;28;19936;-79
2023/11/08 09:06:52;;;;;;;;;;;;;;;4.41;58.38;95388.50;4974985;28;20047;-80
2023/11/08 09:09:18;;;;;;;;;;;;;;;4.60;57.27;95384.97;4977868;28;20004;-79
2023/11/08 09:11:43;;;;;;;;;;;;;;;2.57;62.07;95395.16;4975788;28;19979;-79
2023/11/08 09:14:08;;;;;;;;;;;;;;;3.47;60.57;95389.09;4964256;28;19961;-80
2023/11/08 09:16:37;;;;;;;;;;;;;;;3.15;61.33;95388.38;4980711;28;19975;-78
2023/11/08 09:19:05;;;;;;;;;;;;;;;4.02;59.75;95381.56;4975642;28;20397;-80
2023/11/08 09:21:30;;;;;;;;;;;;;;;4.11;58.39;95378.06;4979584;28;19925;-80
2023/11/08 09:23:56;;;;;;;;;;;;;;;3.90;59.23;95392.25;4980127;28;19922;-79
2023/11/08 09:26:22;;;;;;;;;;;;;;;3.60;60.34;95399.34;4978377;28;19958;-80
2023/11/08 09:28:47;;;;;;;;;;;;;;;3.33;60.48;95398.19;4980260;28;19984;-79
2023/11/08 09:31:15;;;;;;;;;;;;;;;3.43;60.11;95393.78;4979106;28;19967;-73
2023/11/08 09:33:40;;;;;;;;;;;;;;;3.77;59.06;95412.75;4977839;28;20028;-73
2023/11/08 09:36:06;;;;;;;;;;;;;;;3.50;60.49;95404.63;4978426;28;20549;-73
2023/11/08 09:38:32;;;;;;;;;;;;;;;3.45;60.26;95408.63;4977380;28;20381;-73
2023/11/08 09:40:57;;;;;;;;;;;;;;;4.16;58.05;95396.91;4978879;28;19932;-73
2023/11/08 09:43:22;;;;;;;;;;;;;;;4.35;58.33;95394.34;4975963;28;20498;-72
2023/11/08 09:45:47;;;;;;;;;;;;;;;4.81;56.43;95390.00;4977443;28;20017;-72
2023/11/08 09:48:12;;;;;;;;;;;;;;;4.45;57.00;95398.59;4971186;28;20002;-73
2023/11/08 09:50:38;;;;;;;;;;;;;;;5.16;54.75;95405.22;4979430;28;19956;-73
2023/11/08 09:53:03;;;;;;;;;;;;;;;3.11;60.19;95405.41;4982694;28;19929;-71
2023/11/08 09:55:28;;;;;;;;;;;;;;;3.87;57.83;95395.16;4981152;28;20360;-72
2023/11/08 09:57:53;;;;;;;;;;;;;;;4.34;56.74;95388.25;4978869;28;19921;-72
2023/11/08 10:00:20;;;;;;;;;;;;;;;4.81;54.97;95386.50;4975493;28;19928;-72
2023/11/08 10:02:45;;;;;;;;;;;;;;;4.36;55.92;95373.13;4978237;28;20273;-69
2023/11/08 10:05:10;;;;;;;;;;;;;;;5.44;53.25;95373.50;4975863;28;19922;-69
2023/11/08 10:07:37;;;;;;;;;;;;;;;4.48;55.70;95383.47;4975810;28;19921;-68
2023/11/08 10:10:03;;;;;;;;;;;;;;;3.37;58.38;95381.16;4979441;28;19965;-69
2023/11/08 10:12:32;;;;;;;;;;;;;;;4.44;54.65;95385.56;4976546;28;20395;-69
2023/11/08 10:14:58;;;;;;;;;;;;;;;4.03;56.16;95389.31;4968334;28;19977;-68
2023/11/08 10:17:33;;;;;;;;;;;;;;;5.09;54.00;95378.59;4981337;28;19959;-69
2023/11/08 10:19:59;;;;;;;;;;;;;;;4.92;54.27;95382.81;4983699;28;20016;-69
2023/11/08 10:22:24;;;;;;;;;;;;;;;4.07;54.78;95392.47;4981734;28;20363;-70
2023/11/08 10:25:00;;;;;;;;;;;;;;;4.43;54.44;95395.28;4982995;28;20425;-69
2023/11/08 10:27:25;;;;;;;;;;;;;;;3.60;56.24;95388.81;4980325;28;19926;-70
2023/11/08 10:29:51;;;;;;;;;;;;;;;3.30;57.92;95409.84;4983045;28;19952;-70
2023/11/08 10:32:25;;;;;;;;;;;;;;;3.72;57.51;95388.66;4981680;28;19945;-69
2023/11/08 10:34:50;;;;;;;;;;;;;;;3.50;57.79;95382.75;4983387;28;19960;-68
2023/11/08 10:37:22;;;;;;;;;;;;;;;3.93;55.90;95386.72;4982879;28;20431;-69
2023/11/08 10:39:47;;;;;;;;;;;;;;;3.12;58.41;95377.28;4981973;28;20012;-70
2023/11/08 10:42:13;;;;;;;;;;;;;;;3.60;58.80;95374.84;4982087;28;19975;-70
2023/11/08 10:44:39;;;;;;;;;;;;;;;3.89;56.53;95373.94;4981761;28;19963;-69
2023/11/08 10:47:04;;;;;;;;;;;;;;;3.86;56.66;95367.16;4982985;28;20422;-69
2023/11/08 10:49:31;;;;;;;;;;;;;;;4.16;57.48;95369.72;4976738;28;20017;-69
2023/11/08 10:51:57;;;;;;;;;;;;;;;3.93;56.89;95372.69;4981483;28;19956;-68
2023/11/08 10:54:22;;;;;;;;;;;;;;;4.50;55.91;95365.69;4984210;28;20004;-69
2023/11/08 10:56:48;;;;;;;;;;;;;;;4.64;54.47;95359.13;4982004;28;19926;-67
2023/11/08 10:59:15;;;;;;;;;;;;;;;4.18;54.38;95365.13;4982583;28;19958;-69
2023/11/08 11:01:41;;;;;;;;;;;;;;;5.03;53.77;95361.50;4980018;28;19956;-70
2023/11/08 11:04:09;;;;;;;;;;;;;;;4.86;52.50;95349.97;4975898;28;20024;-70
2023/11/08 11:06:35;;;;;;;;;;;;;;;4.32;54.44;95366.50;4981533;28;19925;-69
2023/11/08 11:09:10;;;;;;;;;;;;;;;5.18;53.37;95343.41;4981391;28;19941;-68
2023/11/08 11:11:42;;;;;;;;;;;;;;;4.93;53.70;95352.84;4977595;28;19952;-69
2023/11/08 11:14:24;;;;;;;;;;;;;;;5.55;50.94;95349.47;4977632;28;19950;-69
2023/11/08 11:16:52;;;;;;;;;;;;;;;5.43;51.35;95330.41;4978323;28;20540;-70
2023/11/08 11:19:17;;;;;;;;;;;;;;;5.51;50.68;95323.53;4980945;28;19921;-70
2023/11/08 11:21:43;;;;;;;;;;;;;;;4.29;52.11;95350.97;4974853;28;19933;-69
2023/11/08 11:24:27;;;;;;;;;;;;;;;4.35;52.34;95334.53;4981490;28;19952;-69
2023/11/08 11:26:52;;;;;;;;;;;;;;;5.57;50.57;95333.47;4980465;28;20386;-69
2023/11/08 11:29:18;;;;;;;;;;;;;;;4.45;52.63;95347.69;4973500;28;19966;-69
2023/11/08 11:31:43;;;;;;;;;;;;;;;4.50;51.62;95352.53;4979325;28;19922;-72
2023/11/08 11:34:29;;;;;;;;;;;;;;;4.24;53.75;95332.09;4973822;28;20293;-71
2023/11/08 11:37:05;;;;;;;;;;;;;;;4.54;51.40;95331.00;4981169;28;19933;-72
2023/11/08 11:39:32;;;;;;;;;;;;;;;5.27;50.96;95325.81;4981825;28;19925;-72
2023/11/08 11:42:07;;;;;;;;;;;;;;;4.89;50.79;95336.47;4978792;28;19933;-72
2023/11/08 11:44:38;;;;;;;;;;;;;;;5.06;50.07;95336.66;4979481;28;19950;-72
2023/11/08 11:47:10;;;;;;;;;;;;;;;5.55;48.63;95335.44;4977432;28;19922;-72
2023/11/08 11:49:46;;;;;;;;;;;;;;;5.50;49.71;95329.81;4979866;28;19926;-72
2023/11/08 11:52:13;;;;;;;;;;;;;;;4.41;51.84;95328.69;4980189;28;19980;-72
2023/11/08 11:54:43;;;;;;;;;;;;;;;5.07;50.60;95317.22;4979094;28;19960;-72
2023/11/08 11:57:08;;;;;;;;;;;;;;;4.73;51.63;95323.94;4980429;28;20377;-72
2023/11/08 11:59:33;;;;;;;;;;;;;;;5.39;50.06;95318.50;4980300;28;19980;-72
2023/11/08 12:01:59;;;;;;;;;;;;;;;5.26;50.24;95315.41;4977222;28;19963;-72
2023/11/08 12:04:24;;;;;;;;;;;;;;;5.40;49.64;95317.50;4977448;28;19938;-71
2023/11/08 12:06:49;;;;;;;;;;;;;;;5.17;50.39;95310.03;4975262;28;19950;-72
2023/11/08 12:09:15;;;;;;;;;;;;;;;5.82;49.14;95308.06;4975649;28;19960;-72
2023/11/08 12:11:46;;;;;;;;;;;;;;;5.74;48.86;95315.94;4973396;28;19922;-72
2023/11/08 12:14:11;;;;;;;;;;;;;;;5.05;50.15;95314.72;4974475;28;19918;-72
2023/11/08 12:16:38;;;;;;;;;;;;;;;5.64;50.49;95302.81;4976144;28;19930;-72
2023/11/08 12:19:03;;;;;;;;;;;;;;;5.94;48.96;95297.22;4980718;28;19929;-71
2023/11/08 12:21:30;;;;;;;;;;;;;;;5.16;48.78;95300.47;4979942;28;19967;-72
2023/11/08 12:23:55;;;;;;;;;;;;;;;5.85;47.62;95291.09;4979692;28;19913;-72
2023/11/08 12:26:20;;;;;;;;;;;;;;;8.93;41.41;95280.47;4981117;28;20350;-72
2023/11/08 12:28:46;;;;;;;;;;;;;;;8.90;40.27;95289.59;4981058;28;20009;-72
2023/11/08 12:31:11;;;;;;;;;;;;;;;10.34;37.88;95268.59;4980567;28;19944;-72
2023/11/08 12:33:37;;;;;;;;;;;;;;;9.65;39.94;95270.47;4979239;28;19921;-72
2023/11/08 12:36:05;;;;;;;;;;;;;;;10.76;37.11;95276.06;4980349;28;19918;-72
2023/11/08 12:38:34;;;;;;;;;;;;;;;10.54;37.15;95280.53;4979854;28;20457;-72
2023/11/08 12:41:02;;;;;;;;;;;;;;;8.08;42.06;95288.13;4977973;28;19925;-71
2023/11/08 12:43:28;;;;;;;;;;;;;;;8.71;40.01;95280.28;4977103;28;19926;-70
2023/11/08 12:46:14;;;;;;;;;;;;;;;8.18;40.94;95284.31;4975718;28;19932;-71
2023/11/08 12:48:39;;;;;;;;;;;;;;;6.79;43.70;95276.25;4977495;28;19933;-71
2023/11/08 12:51:05;;;;;;;;;;;;;;;6.25;45.08;95272.91;4976333;28;19926;-71